Time;durP1;ratioP1;P1;durP2;ratioP2;P2;SDS_P1;SDS_P2;PMS_P1;PMS_P2;Temp;Humidity;BMP_temperature;BMP_pressure;BME280_temperature;BME280_humidity;BME280_pressure;Samples;Min_cycle;Max_cycle;Signal;HPM_P1;HPM_P2
2023/05/15 00:03:36;;;;;;;3.40;2.33;;;;;;;14.55;60.59;99953.13;10418387;28;20041;-69
2023/05/15 00:08:39;;;;;;;7.32;2.60;;;;;;;14.53;60.76;99955.22;10402959;28;20068;-68
2023/05/15 00:13:40;;;;;;;4.22;1.90;;;;;;;14.42;61.00;99962.09;10400633;28;20056;-69
2023/05/15 00:18:41;;;;;;;4.65;1.75;;;;;;;14.43;60.90;99953.75;10418287;28;20072;-68
2023/05/15 00:23:43;;;;;;;4.95;2.00;;;;;;;14.42;60.99;99948.59;10419032;28;20479;-68
2023/05/15 00:28:44;;;;;;;2.45;1.77;;;;;;;14.41;61.38;99958.56;10418630;28;20669;-69
2023/05/15 00:33:46;;;;;;;2.17;1.92;;;;;;;14.26;61.57;99958.81;10422654;28;20045;-68
2023/05/15 00:38:47;;;;;;;2.92;1.83;;;;;;;14.17;62.06;99943.00;10429457;28;20106;-69
2023/05/15 00:43:51;;;;;;;2.67;2.08;;;;;;;14.08;61.98;99940.53;10431642;28;20087;-68
2023/05/15 00:48:53;;;;;;;3.95;2.47;;;;;;;14.00;62.49;99942.59;10406220;28;20060;-68
2023/05/15 00:53:55;;;;;;;2.35;2.10;;;;;;;14.00;62.43;99940.75;10423357;28;20061;-68
2023/05/15 00:58:58;;;;;;;3.40;2.70;;;;;;;14.02;62.39;99940.50;10410042;28;20053;-68
2023/05/15 01:04:01;;;;;;;3.10;2.67;;;;;;;14.01;62.62;99931.56;10428340;28;20502;-69
2023/05/15 01:09:04;;;;;;;3.95;2.78;;;;;;;13.99;62.83;99930.94;10418831;28;20068;-69
2023/05/15 01:14:07;;;;;;;3.03;2.45;;;;;;;13.97;62.99;99933.03;10424362;28;20119;-69
2023/05/15 01:19:09;;;;;;;3.90;3.10;;;;;;;13.93;63.08;99939.91;10425581;28;20053;-69
2023/05/15 01:24:26;;;;;;;3.35;2.88;;;;;;;13.87;63.10;99928.03;10423694;28;20045;-69
2023/05/15 01:29:43;;;;;;;4.38;3.42;;;;;;;13.81;63.21;99933.47;10422394;28;20050;-69
2023/05/15 01:34:53;;;;;;;4.95;3.30;;;;;;;13.81;63.35;99928.88;10422474;28;20064;-69
2023/05/15 01:40:01;;;;;;;4.68;4.28;;;;;;;13.70;63.44;99926.78;10423343;28;20045;-69
2023/05/15 01:45:04;;;;;;;5.00;3.83;;;;;;;13.67;63.63;99929.91;10424878;28;20079;-68
2023/05/15 01:50:08;;;;;;;4.07;3.35;;;;;;;13.67;63.58;99929.91;10406314;28;20488;-69
2023/05/15 01:55:13;;;;;;;3.97;3.53;;;;;;;13.56;63.97;99942.16;10420936;28;20053;-68
2023/05/15 02:00:16;;;;;;;8.25;3.67;;;;;;;13.53;63.80;99939.88;10421080;28;20111;-69
2023/05/15 02:05:18;;;;;;;5.10;3.00;;;;;;;13.51;63.86;99930.28;10421872;28;20049;-69
2023/05/15 02:10:20;;;;;;;3.65;2.85;;;;;;;13.44;64.15;99923.03;10418349;28;20199;-68
2023/05/15 02:15:23;;;;;;;4.13;2.50;;;;;;;13.41;64.50;99918.06;10411589;28;20107;-68
2023/05/15 02:20:25;;;;;;;4.03;2.60;;;;;;;13.37;64.15;99916.81;10418392;28;20131;-69
2023/05/15 02:25:45;;;;;;;3.22;2.47;;;;;;;13.34;64.14;99914.50;10415825;28;20045;-68
2023/05/15 02:30:56;;;;;;;2.75;2.33;;;;;;;13.36;64.19;99919.69;10416313;28;20049;-69
2023/05/15 02:36:03;;;;;;;3.90;2.80;;;;;;;13.30;63.94;99921.34;10423635;28;20508;-68
2023/05/15 02:41:06;;;;;;;3.88;3.00;;;;;;;13.25;63.88;99921.09;10419143;28;20508;-68
2023/05/15 02:46:08;;;;;;;6.70;3.25;;;;;;;13.17;64.33;99921.28;10421044;28;20059;-69
2023/05/15 02:51:09;;;;;;;3.88;3.20;;;;;;;13.10;63.96;99918.56;10416716;28;20099;-69
2023/05/15 02:56:11;;;;;;;4.68;3.15;;;;;;;13.03;64.01;99918.56;10420513;28;20079;-69
2023/05/15 03:01:12;;;;;;;7.55;3.00;;;;;;;12.99;64.36;99921.84;10417227;28;20049;-69
2023/05/15 03:06:14;;;;;;;6.20;4.07;;;;;;;12.89;64.32;99924.91;10419183;28;20057;-68
2023/05/15 03:11:18;;;;;;;5.75;3.53;;;;;;;12.82;65.14;99922.22;10425604;28;20077;-68
2023/05/15 03:16:19;;;;;;;5.68;3.53;;;;;;;12.81;64.72;99920.53;10421592;28;20052;-69
2023/05/15 03:21:21;;;;;;;16.27;4.82;;;;;;;12.79;65.12;99924.47;10419265;28;20132;-68
2023/05/15 03:26:22;;;;;;;5.40;3.05;;;;;;;12.80;64.94;99915.34;10415548;28;20483;-68
2023/05/15 03:31:24;;;;;;;3.38;3.00;;;;;;;12.74;64.82;99925.09;10421932;28;20049;-70
2023/05/15 03:36:25;;;;;;;4.45;3.08;;;;;;;12.70;64.76;99915.72;10403495;28;20381;-68
2023/05/15 03:41:27;;;;;;;4.50;3.80;;;;;;;12.58;64.83;99910.06;10417486;28;20049;-68
2023/05/15 03:46:28;;;;;;;5.05;3.40;;;;;;;12.57;65.12;99916.47;10414399;28;20041;-68
2023/05/15 03:51:30;;;;;;;5.32;4.35;;;;;;;12.58;64.83;99928.09;10419926;28;20136;-68
2023/05/15 03:56:31;;;;;;;9.73;4.82;;;;;;;12.53;64.77;99915.22;10407640;28;20033;-68
2023/05/15 04:01:33;;;;;;;7.35;4.68;;;;;;;12.53;65.11;99922.47;10418313;28;20076;-68
2023/05/15 04:06:48;;;;;;;7.75;4.65;;;;;;;12.52;64.83;99923.50;10421994;28;20204;-68
2023/05/15 04:11:50;;;;;;;8.07;4.38;;;;;;;12.56;65.20;99919.38;10430147;28;20591;-68
2023/05/15 04:16:51;;;;;;;4.80;3.50;;;;;;;12.61;65.49;99923.13;10427432;28;20052;-68
2023/05/15 04:21:52;;;;;;;7.00;4.03;;;;;;;12.64;65.42;99921.94;10425641;28;20049;-68
2023/05/15 04:26:54;;;;;;;8.65;4.13;;;;;;;12.68;65.25;99920.50;10408695;28;20081;-68
2023/05/15 04:31:55;;;;;;;5.80;4.30;;;;;;;12.73;65.13;99928.78;10450986;28;20052;-68
2023/05/15 04:36:57;;;;;;;7.47;5.03;;;;;;;12.77;65.59;99924.66;10452635;28;20048;-67
2023/05/15 04:41:58;;;;;;;5.20;3.60;;;;;;;12.87;65.26;99927.00;10450651;28;20049;-67
2023/05/15 04:47:00;;;;;;;7.63;4.18;;;;;;;13.00;65.50;99921.66;10449372;28;20119;-67
2023/05/15 04:52:01;;;;;;;8.98;4.63;;;;;;;13.15;65.82;99917.94;10451409;28;20053;-67
2023/05/15 04:57:03;;;;;;;7.88;4.95;;;;;;;13.31;65.51;99927.56;10461633;28;20063;-67
2023/05/15 05:02:04;;;;;;;6.85;4.45;;;;;;;13.43;65.29;99925.94;10474833;28;20113;-67
2023/05/15 05:07:06;;;;;;;6.20;4.40;;;;;;;13.54;65.54;99927.19;10472051;28;20120;-66
2023/05/15 05:12:08;;;;;;;7.22;5.07;;;;;;;13.65;65.61;99924.72;10473028;28;20060;-67
2023/05/15 05:17:10;;;;;;;6.28;4.80;;;;;;;13.80;65.84;99923.69;10472299;28;20056;-67
2023/05/15 05:22:11;;;;;;;7.28;4.60;;;;;;;13.87;66.04;99924.53;10476243;28;20068;-66
2023/05/15 05:27:13;;;;;;;9.18;5.45;;;;;;;14.05;65.94;99934.69;10473077;28;20033;-66
2023/05/15 05:32:14;;;;;;;10.07;5.85;;;;;;;14.20;65.99;99931.78;10468905;28;20065;-67
2023/05/15 05:37:15;;;;;;;7.47;5.90;;;;;;;14.37;65.81;99940.28;10475382;28;20054;-67
2023/05/15 05:42:17;;;;;;;6.60;4.78;;;;;;;14.52;65.63;99937.34;10470856;28;20056;-68
2023/05/15 05:47:18;;;;;;;7.05;4.22;;;;;;;14.67;65.56;99941.47;10479280;28;20104;-68
2023/05/15 05:52:19;;;;;;;6.10;4.78;;;;;;;14.85;65.35;99939.97;10476106;28;20061;-68
2023/05/15 05:57:21;;;;;;;6.15;4.38;;;;;;;15.02;65.07;99938.41;10476980;28;20033;-68
2023/05/15 06:02:23;;;;;;;4.90;4.40;;;;;;;15.18;64.83;99936.25;10476176;28;20053;-68
2023/05/15 06:07:24;;;;;;;6.18;4.63;;;;;;;15.33;64.39;99934.09;10457767;28;20122;-68
2023/05/15 06:12:26;;;;;;;5.28;4.38;;;;;;;15.39;64.44;99933.22;10451022;28;20049;-68
2023/05/15 06:17:28;;;;;;;4.18;3.70;;;;;;;15.45;64.42;99937.78;10455163;28;20103;-69
2023/05/15 06:22:31;;;;;;;6.18;4.00;;;;;;;15.58;64.03;99945.00;10439404;28;20069;-64
2023/05/15 06:27:33;;;;;;;5.30;4.15;;;;;;;15.58;63.92;99927.88;10422168;28;20122;-66
2023/05/15 06:32:34;;;;;;;5.45;4.05;;;;;;;15.78;63.70;99931.31;10425718;28;20488;-65
2023/05/15 06:37:36;;;;;;;4.78;3.97;;;;;;;16.06;63.34;99927.34;10423061;28;20106;-64
2023/05/15 06:42:37;;;;;;;9.98;4.88;;;;;;;16.26;62.80;99932.56;10422607;28;20510;-64
2023/05/15 06:47:39;;;;;;;4.30;3.90;;;;;;;16.47;62.31;99925.91;10420679;28;20048;-64
2023/05/15 06:52:40;;;;;;;3.95;3.05;;;;;;;16.71;61.85;99920.63;10424325;28;20067;-64
2023/05/15 06:57:43;;;;;;;5.90;3.13;;;;;;;16.79;61.32;99918.41;10419153;28;20499;-65
2023/05/15 07:02:44;;;;;;;5.63;3.00;;;;;;;16.73;60.96;99913.91;10419344;28;20405;-64
2023/05/15 07:07:46;;;;;;;3.20;2.75;;;;;;;16.68;61.07;99918.34;10421072;28;20071;-63
2023/05/15 07:12:47;;;;;;;2.50;2.30;;;;;;;16.98;60.09;99918.41;10419666;28;20144;-59
2023/05/15 07:17:49;;;;;;;7.07;3.08;;;;;;;17.12;59.96;99921.78;10439955;28;20053;-61
2023/05/15 07:22:50;;;;;;;5.20;2.88;;;;;;;17.18;60.08;99904.56;10433639;28;20067;-60
2023/05/15 07:27:57;;;;;;;5.95;3.15;;;;;;;17.37;60.07;99905.34;10428148;28;20132;-64
2023/05/15 07:32:58;;;;;;;4.25;3.25;;;;;;;17.51;59.39;99904.09;10420266;28;20057;-58
2023/05/15 07:38:00;;;;;;;3.00;2.70;;;;;;;17.71;58.96;99905.66;10416311;28;20404;-57
2023/05/15 07:43:01;;;;;;;5.78;2.72;;;;;;;17.82;58.85;99910.28;10417606;28;20049;-57
2023/05/15 07:48:16;;;;;;;4.00;2.13;;;;;;;18.11;58.63;99900.41;10415982;28;20069;-56
2023/05/15 07:53:18;;;;;;;4.65;2.33;;;;;;;18.51;57.82;99896.94;10421318;28;20717;-56
2023/05/15 07:58:20;;;;;;;2.67;2.10;;;;;;;18.79;57.12;99889.88;10418180;28;20060;-57
2023/05/15 08:03:21;;;;;;;4.90;2.20;;;;;;;19.01;56.75;99890.91;10416044;28;20130;-55
2023/05/15 08:08:23;;;;;;;4.93;2.28;;;;;;;19.21;56.34;99874.13;10405881;28;20041;-57
2023/05/15 08:13:25;;;;;;;6.88;2.25;;;;;;;19.39;55.88;99881.25;10422724;28;20069;-57
2023/05/15 08:18:26;;;;;;;4.80;1.73;;;;;;;19.60;55.52;99876.97;10414901;28;20069;-56
2023/05/15 08:23:28;;;;;;;5.22;1.65;;;;;;;19.86;54.57;99879.31;10426228;28;20041;-62
2023/05/15 08:28:29;;;;;;;2.35;1.98;;;;;;;20.00;53.98;99880.63;10430322;28;20093;-61
2023/05/15 08:33:30;;;;;;;1.65;1.40;;;;;;;20.20;53.00;99880.94;10441160;28;20120;-59
2023/05/15 08:38:32;;;;;;;2.70;1.60;;;;;;;20.32;51.03;99875.38;10438211;28;20041;-62
2023/05/15 08:43:37;;;;;;;2.38;1.20;;;;;;;20.32;50.16;99869.91;10420920;28;20068;-61
2023/05/15 08:48:41;;;;;;;3.53;1.48;;;;;;;20.63;48.74;99862.13;10438038;28;20044;-60
2023/05/15 08:53:42;;;;;;;5.50;2.13;;;;;;;20.72;47.40;99862.50;10441007;28;20504;-62
2023/05/15 08:58:44;;;;;;;6.85;2.78;;;;;;;20.79;46.14;99874.91;10445676;28;20056;-63
2023/05/15 09:03:45;;;;;;;3.63;1.85;;;;;;;21.06;45.56;99868.63;10449005;28;20065;-60
2023/05/15 09:08:48;;;;;;;3.13;2.10;;;;;;;21.04;44.63;99865.31;10431768;28;20041;-60
2023/05/15 09:13:50;;;;;;;4.60;2.40;;;;;;;21.13;44.22;99858.31;10412983;28;20980;-61
2023/05/15 09:18:53;;;;;;;5.85;2.97;;;;;;;21.45;44.50;99852.09;10413664;28;20103;-61
2023/05/15 09:24:14;;;;;;;4.20;2.60;;;;;;;21.50;44.21;99851.28;10443299;28;20087;-63
2023/05/15 09:29:16;;;;;;;3.80;2.00;;;;;;;21.87;42.82;99847.75;10432562;28;20131;-60
2023/05/15 09:34:28;;;;;;;2.13;1.30;;;;;;;22.07;42.35;99847.06;10422940;28;20044;-61
2023/05/15 09:39:30;;;;;;;2.30;1.80;;;;;;;22.13;41.88;99852.28;10423611;28;20652;-61
2023/05/15 09:44:32;;;;;;;3.75;1.60;;;;;;;22.17;41.49;99849.84;10424046;28;20045;-63
2023/05/15 09:49:34;;;;;;;2.70;1.90;;;;;;;22.31;41.45;99837.34;10422707;28;20060;-56
2023/05/15 09:54:36;;;;;;;2.75;1.77;;;;;;;22.49;40.30;99849.78;10413109;28;20053;-59
2023/05/15 09:59:46;;;;;;;3.53;2.25;;;;;;;22.57;39.52;99834.72;10417426;28;20044;-58
2023/05/15 10:04:55;;;;;;;3.75;2.03;;;;;;;22.91;39.54;99824.16;10423235;28;20053;-56
2023/05/15 10:09:58;;;;;;;4.28;2.40;;;;;;;22.44;40.43;99819.63;10419482;28;20057;-56
2023/05/15 10:15:00;;;;;;;5.85;3.25;;;;;;;22.52;40.71;99821.03;10423242;28;20092;-57
2023/05/15 10:20:05;;;;;;;5.15;3.30;;;;;;;22.24;40.81;99823.09;10428600;28;20056;-56
2023/05/15 10:25:41;;;;;;;4.80;3.15;;;;;;;22.36;39.97;99820.94;10423753;28;20049;-58
2023/05/15 10:30:42;;;;;;;5.03;2.50;;;;;;;22.88;38.84;99821.94;10421681;28;20095;-56
2023/05/15 10:35:45;;;;;;;3.90;2.78;;;;;;;23.22;38.22;99810.50;10425209;28;20500;-57
2023/05/15 10:40:48;;;;;;;6.75;3.92;;;;;;;22.82;38.73;99813.97;10415752;28;20122;-56
2023/05/15 10:45:51;;;;;;;6.35;3.67;;;;;;;22.97;38.67;99819.50;10421534;28;20051;-58
2023/05/15 10:50:52;;;;;;;8.55;4.68;;;;;;;22.95;38.10;99799.75;10416912;28;20057;-56
2023/05/15 10:55:54;;;;;;;7.57;5.95;;;;;;;23.27;38.94;99804.22;10417994;28;20546;-57
2023/05/15 11:00:56;;;;;;;11.18;6.15;;;;;;;23.72;38.39;99794.31;10418931;28;20049;-58
2023/05/15 11:06:09;;;;;;;7.97;5.68;;;;;;;23.66;39.25;99793.50;10413249;28;20530;-61
2023/05/15 11:11:53;;;;;;;9.30;5.57;;;;;;;23.74;39.18;99784.69;10442315;28;20057;-64
2023/05/15 11:16:56;;;;;;;5.72;4.38;;;;;;;24.11;37.89;99774.44;10387443;28;20053;-60
2023/05/15 11:22:07;;;;;;;9.38;5.25;;;;;;;24.38;37.75;99774.06;10397141;28;20049;-60
2023/05/15 11:27:12;;;;;;;13.25;8.40;;;;;;;23.88;38.46;99779.47;10440149;28;20056;-61
2023/05/15 11:32:39;;;;;;;9.52;6.53;;;;;;;23.86;38.24;99762.47;10431675;28;20061;-61
2023/05/15 11:37:42;;;;;;;7.63;6.00;;;;;;;24.05;37.68;99761.84;10440133;28;20049;-62
2023/05/15 11:43:03;;;;;;;10.18;6.43;;;;;;;23.87;37.80;99769.56;10425404;28;20045;-61
2023/05/15 11:48:06;;;;;;;7.85;4.85;;;;;;;24.03;37.30;99766.78;10420864;28;20056;-64
2023/05/15 11:53:09;;;;;;;10.70;7.40;;;;;;;24.07;37.23;99779.72;10427987;28;20079;-59
2023/05/15 11:58:21;;;;;;;10.75;7.18;;;;;;;24.20;37.64;99789.25;10424329;28;20053;-61
2023/05/15 12:03:34;;;;;;;13.48;7.05;;;;;;;23.76;38.32;99771.50;10415566;28;20053;-56
2023/05/15 12:08:37;;;;;;;14.43;8.38;;;;;;;23.30;39.18;99774.31;10417713;28;20102;-67
2023/05/15 12:13:38;;;;;;;14.88;8.93;;;;;;;23.35;39.68;99773.50;10416504;28;20103;-65
2023/05/15 12:18:40;;;;;;;11.25;8.32;;;;;;;23.35;39.83;99777.03;10418233;28;20464;-64
2023/05/15 12:23:50;;;;;;;11.90;7.95;;;;;;;23.45;39.83;99772.66;10422101;28;20049;-65
2023/05/15 12:29:07;;;;;;;13.57;7.63;;;;;;;23.37;39.79;99776.78;10425949;28;20076;-66
2023/05/15 12:34:09;;;;;;;9.55;6.40;;;;;;;23.27;39.20;99774.84;10424793;28;20083;-65
2023/05/15 12:39:11;;;;;;;6.75;2.60;;;;;;;23.09;37.12;99759.78;10420228;28;20565;-65
2023/05/15 12:44:16;;;;;;;3.20;2.65;;;;;;;23.63;35.84;99763.03;10425145;28;20073;-67
2023/05/15 12:49:21;;;;;;;2.00;1.05;;;;;;;23.44;34.57;99769.09;10420917;28;20053;-59
2023/05/15 12:54:23;;;;;;;2.47;1.00;;;;;;;23.68;33.80;99763.03;10424749;28;20053;-59
2023/05/15 12:59:24;;;;;;;2.20;0.88;;;;;;;23.73;33.34;99774.78;10415088;28;20045;-58
2023/05/15 13:04:26;;;;;;;1.95;1.15;;;;;;;23.82;32.99;99788.00;10423773;28;20119;-59
2023/05/15 13:09:28;;;;;;;2.53;1.15;;;;;;;23.69;33.05;99781.94;10419980;28;20051;-59
2023/05/15 13:14:33;;;;;;;3.63;2.13;;;;;;;23.29;34.03;99780.88;10417499;28;20041;-58
2023/05/15 13:19:34;;;;;;;3.20;2.22;;;;;;;22.73;35.71;99789.84;10418688;28;20046;-58
2023/05/15 13:24:36;;;;;;;3.42;2.13;;;;;;;22.20;37.19;99785.53;10414408;28;20100;-58
2023/05/15 13:29:37;;;;;;;2.60;1.83;;;;;;;21.57;38.31;99783.53;10419542;28;20045;-57
2023/05/15 13:34:39;;;;;;;4.10;1.88;;;;;;;21.38;38.08;99780.34;10417506;28;20076;-57
2023/05/15 13:39:40;;;;;;;5.82;2.03;;;;;;;20.79;38.84;99794.81;10418756;28;20045;-58
2023/05/15 13:44:42;;;;;;;3.40;2.00;;;;;;;20.45;40.66;99821.47;10419066;28;20096;-57
2023/05/15 13:49:44;;;;;;;4.47;2.30;;;;;;;20.28;42.41;99865.19;10417233;28;20104;-59
2023/05/15 13:54:45;;;;;;;2.70;2.00;;;;;;;20.00;43.31;99854.19;10414423;28;20052;-58
2023/05/15 13:59:47;;;;;;;4.63;2.47;;;;;;;19.52;44.84;99874.66;10419619;28;20076;-58
2023/05/15 14:04:48;;;;;;;7.00;2.67;;;;;;;18.87;47.48;99875.09;10419047;28;20492;-57
2023/05/15 14:09:50;;;;;;;4.00;2.35;;;;;;;17.49;52.27;99891.78;10424217;28;20106;-67
2023/05/15 14:14:52;;;;;;;3.03;2.80;;;;;;;16.56;56.37;99888.44;10419264;28;20084;-63
2023/05/15 14:19:53;;;;;;;4.03;3.10;;;;;;;15.86;59.18;99884.16;10424357;28;20139;-65
2023/05/15 14:24:55;;;;;;;4.28;3.05;;;;;;;15.34;61.23;99870.75;10418798;28;20135;-62
2023/05/15 14:29:56;;;;;;;4.90;2.75;;;;;;;15.04;62.38;99857.81;10422958;28;20123;-62
2023/05/15 14:34:58;;;;;;;3.97;3.38;;;;;;;14.93;64.51;99852.25;10420090;28;20045;-61
2023/05/15 14:40:00;;;;;;;6.30;3.45;;;;;;;14.74;65.59;99846.75;10417228;28;20060;-63
2023/05/15 14:45:01;;;;;;;4.88;2.50;;;;;;;14.61;67.19;99846.81;10423018;28;20053;-61
2023/05/15 14:50:04;;;;;;;6.97;3.70;;;;;;;14.60;68.69;99864.91;10424458;28;20081;-63
2023/05/15 14:55:05;;;;;;;7.85;4.90;;;;;;;14.72;69.16;99845.31;10424405;28;20081;-63
2023/05/15 15:00:12;;;;;;;9.25;4.57;;;;;;;14.84;68.73;99841.69;10419256;28;20096;-65
2023/05/15 15:05:13;;;;;;;7.90;5.47;;;;;;;15.05;67.67;99837.84;10420307;28;20060;-65
2023/05/15 15:10:14;;;;;;;10.68;5.80;;;;;;;15.24;66.94;99829.78;10422444;28;20107;-62
2023/05/15 15:15:16;;;;;;;8.82;6.38;;;;;;;15.57;65.68;99832.25;10425974;28;20045;-64
2023/05/15 15:20:19;;;;;;;8.10;6.18;;;;;;;15.64;65.40;99832.19;10421865;28;20107;-64
2023/05/15 15:25:21;;;;;;;12.85;7.70;;;;;;;15.25;67.49;99832.28;10421023;28;20049;-63
2023/05/15 15:30:22;;;;;;;13.27;8.05;;;;;;;15.18;68.32;99825.25;10418585;28;20049;-64
2023/05/15 15:35:24;;;;;;;11.43;7.82;;;;;;;15.47;67.82;99827.31;10424887;28;20492;-64
2023/05/15 15:40:25;;;;;;;15.95;8.40;;;;;;;15.65;67.47;99828.41;10420123;28;20131;-64
2023/05/15 15:45:27;;;;;;;15.07;7.43;;;;;;;15.91;67.09;99813.81;10418833;28;20136;-63
2023/05/15 15:50:28;;;;;;;15.95;7.65;;;;;;;16.17;66.44;99825.44;10415827;28;20114;-62
2023/05/15 15:55:30;;;;;;;11.75;6.97;;;;;;;16.29;66.78;99834.50;10421296;28;20710;-63
2023/05/15 16:00:31;;;;;;;11.25;7.68;;;;;;;16.50;67.06;99832.34;10423290;28;20615;-63
2023/05/15 16:05:33;;;;;;;10.50;6.85;;;;;;;17.00;65.97;99837.56;10427695;28;20103;-65
2023/05/15 16:10:34;;;;;;;12.65;7.25;;;;;;;17.26;65.92;99830.91;10429666;28;20045;-63
2023/05/15 16:15:35;;;;;;;7.63;5.60;;;;;;;17.62;65.41;99832.63;10426714;28;20049;-65
2023/05/15 16:20:37;;;;;;;8.20;5.78;;;;;;;17.99;64.52;99837.00;10415084;28;20080;-66
2023/05/15 16:25:39;;;;;;;6.13;5.25;;;;;;;18.23;64.32;99832.41;10420328;28;20077;-65
2023/05/15 16:30:41;;;;;;;7.60;5.70;;;;;;;18.36;64.03;99834.84;10406463;28;20080;-66
2023/05/15 16:35:51;;;;;;;6.30;4.82;;;;;;;18.45;63.75;99832.59;10425667;28;20045;-66
2023/05/15 16:40:52;;;;;;;5.88;4.60;;;;;;;18.55;63.02;99823.78;10428625;28;20057;-63
2023/05/15 16:45:54;;;;;;;6.35;4.65;;;;;;;18.60;62.23;99826.59;10413565;28;20050;-65
2023/05/15 16:50:55;;;;;;;9.32;4.15;;;;;;;18.68;61.30;99831.69;10405816;28;20080;-65
2023/05/15 16:55:57;;;;;;;4.43;3.47;;;;;;;18.50;60.95;99824.50;10402869;28;20065;-66
2023/05/15 17:00:58;;;;;;;4.97;3.97;;;;;;;18.34;60.48;99826.09;10426069;28;20110;-66
2023/05/15 17:06:00;;;;;;;6.53;4.53;;;;;;;18.26;60.25;99831.91;10423228;28;20099;-67
2023/05/15 17:11:01;;;;;;;8.55;4.03;;;;;;;18.28;60.12;99829.75;10412371;28;20046;-67
2023/05/15 17:16:03;;;;;;;7.80;4.88;;;;;;;18.31;60.06;99832.03;10424734;28;20056;-65
2023/05/15 17:21:05;;;;;;;5.97;4.28;;;;;;;18.37;59.66;99831.06;10421586;28;20056;-67
2023/05/15 17:26:06;;;;;;;6.03;4.68;;;;;;;18.31;59.98;99834.75;10414286;28;20064;-66
2023/05/15 17:31:09;;;;;;;6.30;3.92;;;;;;;18.44;59.27;99836.34;10421160;28;20083;-62
2023/05/15 17:36:10;;;;;;;8.55;4.60;;;;;;;18.62;59.22;99849.81;10421185;28;20053;-65
2023/05/15 17:41:12;;;;;;;5.85;4.35;;;;;;;18.88;59.29;99842.19;10422138;28;20073;-66
2023/05/15 17:46:13;;;;;;;5.40;4.13;;;;;;;18.97;58.93;99845.31;10425015;28;20115;-66
2023/05/15 17:51:15;;;;;;;5.97;3.78;;;;;;;19.03;58.80;99849.78;10431131;28;20048;-76
2023/05/15 17:56:16;;;;;;;5.70;4.53;;;;;;;19.06;58.35;99854.75;10422017;28;20095;-75
2023/05/15 18:01:18;;;;;;;6.07;4.00;;;;;;;19.15;57.99;99861.44;10430823;28;20138;-75
2023/05/15 18:06:20;;;;;;;6.50;3.72;;;;;;;19.24;58.03;99856.44;10432129;28;20067;-72
2023/05/15 18:11:21;;;;;;;6.13;3.92;;;;;;;19.27;58.06;99863.31;10431042;28;20063;-74
2023/05/15 18:16:23;;;;;;;6.18;3.95;;;;;;;19.19;57.86;99873.53;10421702;28;20111;-72
2023/05/15 18:21:25;;;;;;;4.40;4.00;;;;;;;19.13;57.45;99870.94;10413919;28;20069;-73
2023/05/15 18:26:29;;;;;;;3.92;3.20;;;;;;;19.00;57.09;99872.91;10416764;28;20053;-73
2023/05/15 18:31:31;;;;;;;5.63;3.47;;;;;;;18.89;56.73;99886.56;10422806;28;20068;-72
2023/05/15 18:36:33;;;;;;;7.97;4.55;;;;;;;18.76;56.69;99895.81;10410983;28;20051;-73
2023/05/15 18:41:34;;;;;;;4.45;3.50;;;;;;;18.64;57.10;99901.28;10423587;28;20047;-75
2023/05/15 18:46:36;;;;;;;9.45;3.20;;;;;;;18.48;56.81;99905.56;10399628;28;20467;-75
2023/05/15 18:51:38;;;;;;;6.82;3.80;;;;;;;18.51;56.71;99907.00;10420386;28;20068;-75
2023/05/15 18:56:40;;;;;;;4.85;3.80;;;;;;;18.42;56.18;99914.69;10410096;28;20077;-74
2023/05/15 19:01:45;;;;;;;6.25;4.63;;;;;;;18.36;57.04;99916.47;10426036;28;20497;-76
2023/05/15 19:06:49;;;;;;;7.35;4.50;;;;;;;18.25;56.62;99917.31;10406354;28;20056;-75
2023/05/15 19:11:51;;;;;;;8.05;5.05;;;;;;;18.04;56.93;99925.00;10412972;28;20049;-75
2023/05/15 19:16:53;;;;;;;7.10;4.68;;;;;;;17.98;56.98;99928.66;10412413;28;20132;-73
2023/05/15 19:21:54;;;;;;;6.38;4.75;;;;;;;18.01;57.00;99938.25;10424612;28;20647;-70
2023/05/15 19:26:55;;;;;;;7.45;5.25;;;;;;;18.16;57.20;99946.75;10422550;28;20049;-69
2023/05/15 19:31:57;;;;;;;5.97;4.80;;;;;;;18.16;57.57;99951.38;10425332;28;20049;-70
2023/05/15 19:36:58;;;;;;;6.50;5.07;;;;;;;18.13;57.90;99951.88;10415317;28;20560;-70
2023/05/15 19:42:00;;;;;;;6.88;5.35;;;;;;;18.11;58.00;99964.84;10420616;28;20131;-71
2023/05/15 19:47:02;;;;;;;9.13;5.53;;;;;;;18.10;57.95;99977.63;10401634;28;20077;-70
2023/05/15 19:52:04;;;;;;;6.43;5.70;;;;;;;17.77;58.87;99994.44;10404999;28;20384;-70
2023/05/15 19:57:06;;;;;;;8.07;5.72;;;;;;;17.69;59.06;99992.06;10405318;28;20420;-70
2023/05/15 20:02:09;;;;;;;12.40;7.00;;;;;;;17.71;58.82;99992.66;10416431;28;20149;-70
2023/05/15 20:07:11;;;;;;;7.28;5.35;;;;;;;17.77;59.12;99997.16;10420389;28;20088;-70
2023/05/15 20:12:13;;;;;;;10.93;6.47;;;;;;;17.70;59.22;100001.88;10419447;28;20057;-69
2023/05/15 20:17:15;;;;;;;7.53;5.78;;;;;;;17.48;59.61;100012.44;10417129;28;20087;-71
2023/05/15 20:22:16;;;;;;;10.57;8.15;;;;;;;17.37;59.78;100005.88;10408420;28;20559;-71
2023/05/15 20:27:18;;;;;;;11.95;7.45;;;;;;;17.22;60.27;100009.84;10421807;28;20053;-72
2023/05/15 20:32:20;;;;;;;10.07;7.63;;;;;;;17.11;60.60;99999.72;10423919;28;20053;-71
2023/05/15 20:37:26;;;;;;;8.13;7.13;;;;;;;17.07;60.42;100001.25;10412919;28;20045;-74
2023/05/15 20:42:28;;;;;;;10.05;7.55;;;;;;;17.05;60.28;100006.06;10412768;28;20103;-75
2023/05/15 20:47:43;;;;;;;11.18;7.65;;;;;;;17.03;59.65;100009.00;10412145;28;20058;-75
2023/05/15 20:52:45;;;;;;;9.30;8.30;;;;;;;17.01;59.39;100013.84;10428063;28;20072;-72
2023/05/15 20:57:48;;;;;;;12.35;7.95;;;;;;;16.98;59.43;100008.03;10433270;28;20049;-76
2023/05/15 21:02:51;;;;;;;11.13;8.70;;;;;;;16.79;59.69;100013.44;10415898;28;20143;-76
2023/05/15 21:07:54;;;;;;;12.68;9.90;;;;;;;16.78;59.32;100009.03;10413342;28;20057;-74
2023/05/15 21:12:59;;;;;;;12.50;9.75;;;;;;;16.71;59.14;100008.31;10397003;28;20052;-75
2023/05/15 21:18:01;;;;;;;12.85;10.18;;;;;;;16.61;59.12;100013.41;10428699;28;20106;-73
2023/05/15 21:23:03;;;;;;;13.48;9.20;;;;;;;16.58;59.33;100011.97;10413031;28;20103;-74
2023/05/15 21:28:04;;;;;;;20.85;13.18;;;;;;;16.36;60.17;100011.56;10412692;28;20068;-75
2023/05/15 21:33:08;;;;;;;20.63;13.32;;;;;;;16.35;60.06;100018.03;10430013;28;20049;-74
2023/05/15 21:38:12;;;;;;;23.25;14.20;;;;;;;16.14;60.79;100015.72;10413509;28;20056;-75
2023/05/15 21:43:13;;;;;;;23.83;15.75;;;;;;;16.13;60.55;100017.56;10428942;28;20053;-70
2023/05/15 21:48:15;;;;;;;31.90;17.20;;;;;;;16.10;60.53;100018.03;10412005;28;20049;-73
2023/05/15 21:53:19;;;;;;;24.60;15.35;;;;;;;16.05;60.73;100018.69;10418487;28;20072;-72
2023/05/15 21:58:20;;;;;;;25.75;16.95;;;;;;;16.08;60.47;100022.84;10425272;28;20041;-71
2023/05/15 22:03:22;;;;;;;26.80;18.08;;;;;;;16.05;60.59;100025.97;10428803;28;20152;-73
2023/05/15 22:08:24;;;;;;;24.05;16.85;;;;;;;15.99;60.88;100030.41;10406267;28;20052;-73
2023/05/15 22:13:26;;;;;;;28.65;16.83;;;;;;;15.88;60.97;100024.84;10425380;28;20128;-72
2023/05/15 22:18:27;;;;;;;26.48;16.13;;;;;;;15.88;60.67;100031.13;10407085;28;20057;-72
2023/05/15 22:23:30;;;;;;;30.40;15.90;;;;;;;15.86;60.77;100030.50;10407513;28;20037;-74
2023/05/15 22:28:32;;;;;;;25.42;15.63;;;;;;;15.76;61.08;100022.88;10394206;28;20105;-74
2023/05/15 22:33:34;;;;;;;27.17;16.80;;;;;;;15.75;61.12;100025.78;10407737;28;20057;-75
2023/05/15 22:38:36;;;;;;;28.30;17.25;;;;;;;15.66;61.11;100036.03;10415245;28;20538;-71
2023/05/15 22:43:38;;;;;;;26.10;16.90;;;;;;;15.70;60.85;100039.09;10427338;28;20053;-72
2023/05/15 22:48:40;;;;;;;31.25;18.77;;;;;;;15.61;61.25;100036.66;10404545;28;20067;-73
2023/05/15 22:53:42;;;;;;;30.50;17.33;;;;;;;15.54;61.37;100032.31;10405834;28;20144;-74
2023/05/15 22:58:46;;;;;;;33.67;17.88;;;;;;;15.54;61.38;100046.72;10399000;28;20472;-74
2023/05/15 23:03:48;;;;;;;30.75;16.92;;;;;;;15.42;61.48;100049.28;10380666;28;20061;-73
2023/05/15 23:08:50;;;;;;;32.70;18.40;;;;;;;15.41;61.59;100049.47;10398315;28;20056;-74
2023/05/15 23:13:51;;;;;;;29.60;17.90;;;;;;;15.39;61.87;100048.88;10424234;28;20052;-72
2023/05/15 23:18:55;;;;;;;33.50;19.08;;;;;;;15.42;61.87;100040.28;10424796;28;20053;-74
2023/05/15 23:23:56;;;;;;;31.63;19.30;;;;;;;15.36;62.13;100052.00;10389135;28;20053;-73